sensor_id;sensor_type;location;lat;lon;timestamp;temperature;humidity
5775;DHT22;2913;51.120;6.772;2023-07-16T00:01:52;20.20;99.90
5775;DHT22;2913;51.120;6.772;2023-07-16T00:04:17;20.20;99.90
5775;DHT22;2913;51.120;6.772;2023-07-16T00:06:43;20.10;99.90
5775;DHT22;2913;51.120;6.772;2023-07-16T00:09:11;20.10;99.90
5775;DHT22;2913;51.120;6.772;2023-07-16T00:11:39;20.10;99.90
5775;DHT22;2913;51.120;6.772;2023-07-16T00:14:05;20.00;99.90
5775;DHT22;2913;51.120;6.772;2023-07-16T00:16:30;20.00;99.90
5775;DHT22;2913;51.120;6.772;2023-07-16T00:18:56;20.00;99.90
5775;DHT22;2913;51.120;6.772;2023-07-16T00:21:22;20.00;99.90
5775;DHT22;2913;51.120;6.772;2023-07-16T00:23:47;20.00;99.90
5775;DHT22;2913;51.120;6.772;2023-07-16T00:26:16;19.20;99.90
5775;DHT22;2913;51.120;6.772;2023-07-16T00:28:43;19.90;99.90
5775;DHT22;2913;51.120;6.772;2023-07-16T00:31:10;19.90;99.90
5775;DHT22;2913;51.120;6.772;2023-07-16T00:33:35;19.90;99.90
5775;DHT22;2913;51.120;6.772;2023-07-16T00:36:01;19.90;99.90
5775;DHT22;2913;51.120;6.772;2023-07-16T00:38:27;19.80;99.90
5775;DHT22;2913;51.120;6.772;2023-07-16T00:40:52;19.80;99.90
5775;DHT22;2913;51.120;6.772;2023-07-16T00:43:18;19.80;99.90
5775;DHT22;2913;51.120;6.772;2023-07-16T00:45:45;19.70;99.90
5775;DHT22;2913;51.120;6.772;2023-07-16T00:48:14;19.70;99.90
5775;DHT22;2913;51.120;6.772;2023-07-16T00:50:44;19.70;99.90
5775;DHT22;2913;51.120;6.772;2023-07-16T00:53:10;19.70;99.90
5775;DHT22;2913;51.120;6.772;2023-07-16T00:55:39;19.70;99.90
5775;DHT22;2913;51.120;6.772;2023-07-16T00:58:10;19.70;99.90
5775;DHT22;2913;51.120;6.772;2023-07-16T01:00:38;19.70;99.90
5775;DHT22;2913;51.120;6.772;2023-07-16T01:03:10;19.70;99.90
5775;DHT22;2913;51.120;6.772;2023-07-16T01:06:11;19.60;99.90
5775;DHT22;2913;51.120;6.772;2023-07-16T01:08:41;19.60;99.90
5775;DHT22;2913;51.120;6.772;2023-07-16T01:11:08;19.50;99.90
5775;DHT22;2913;51.120;6.772;2023-07-16T01:13:34;19.60;99.90
5775;DHT22;2913;51.120;6.772;2023-07-16T01:16:00;19.50;99.90
5775;DHT22;2913;51.120;6.772;2023-07-16T01:18:26;19.50;99.90
5775;DHT22;2913;51.120;6.772;2023-07-16T01:20:52;19.50;99.90
5775;DHT22;2913;51.120;6.772;2023-07-16T01:23:50;19.50;99.90
5775;DHT22;2913;51.120;6.772;2023-07-16T01:26:46;19.50;99.90
5775;DHT22;2913;51.120;6.772;2023-07-16T01:31:56;19.50;99.90
5775;DHT22;2913;51.120;6.772;2023-07-16T01:34:23;19.40;99.90
5775;DHT22;2913;51.120;6.772;2023-07-16T01:36:50;19.30;99.90
5775;DHT22;2913;51.120;6.772;2023-07-16T01:39:16;19.30;99.90
5775;DHT22;2913;51.120;6.772;2023-07-16T01:41:44;19.30;99.90
5775;DHT22;2913;51.120;6.772;2023-07-16T01:44:10;19.20;99.90
5775;DHT22;2913;51.120;6.772;2023-07-16T01:46:36;19.20;99.90
5775;DHT22;2913;51.120;6.772;2023-07-16T01:49:06;19.10;99.90
5775;DHT22;2913;51.120;6.772;2023-07-16T01:51:34;19.10;99.90
5775;DHT22;2913;51.120;6.772;2023-07-16T01:54:04;19.10;99.90
5775;DHT22;2913;51.120;6.772;2023-07-16T01:56:30;19.10;99.90
5775;DHT22;2913;51.120;6.772;2023-07-16T01:58:56;19.00;99.90
5775;DHT22;2913;51.120;6.772;2023-07-16T02:01:21;19.00;99.90
5775;DHT22;2913;51.120;6.772;2023-07-16T02:03:47;19.00;99.90
5775;DHT22;2913;51.120;6.772;2023-07-16T02:06:13;18.90;99.90
5775;DHT22;2913;51.120;6.772;2023-07-16T02:08:39;18.90;99.90
5775;DHT22;2913;51.120;6.772;2023-07-16T02:11:09;18.90;99.90
5775;DHT22;2913;51.120;6.772;2023-07-16T02:13:37;18.80;99.90
5775;DHT22;2913;51.120;6.772;2023-07-16T02:16:05;18.80;99.90
5775;DHT22;2913;51.120;6.772;2023-07-16T02:18:31;18.70;99.90
5775;DHT22;2913;51.120;6.772;2023-07-16T02:20:57;18.70;99.90
5775;DHT22;2913;51.120;6.772;2023-07-16T02:23:22;18.70;99.90
5775;DHT22;2913;51.120;6.772;2023-07-16T02:25:48;18.70;99.90
5775;DHT22;2913;51.120;6.772;2023-07-16T02:28:18;18.60;99.90
5775;DHT22;2913;51.120;6.772;2023-07-16T02:30:46;18.60;99.90
5775;DHT22;2913;51.120;6.772;2023-07-16T02:33:18;18.50;99.90
5775;DHT22;2913;51.120;6.772;2023-07-16T02:35:47;18.50;99.90
5775;DHT22;2913;51.120;6.772;2023-07-16T02:38:14;18.50;99.90
5775;DHT22;2913;51.120;6.772;2023-07-16T02:40:44;18.50;99.90
5775;DHT22;2913;51.120;6.772;2023-07-16T02:43:13;18.50;99.90
5775;DHT22;2913;51.120;6.772;2023-07-16T02:45:39;18.50;99.90
5775;DHT22;2913;51.120;6.772;2023-07-16T02:48:06;18.50;99.90
5775;DHT22;2913;51.120;6.772;2023-07-16T02:50:38;18.50;99.90
5775;DHT22;2913;51.120;6.772;2023-07-16T02:53:04;18.50;99.90
5775;DHT22;2913;51.120;6.772;2023-07-16T02:55:30;18.50;99.90
5775;DHT22;2913;51.120;6.772;2023-07-16T02:57:56;18.50;99.90
5775;DHT22;2913;51.120;6.772;2023-07-16T03:00:26;18.50;99.90
5775;DHT22;2913;51.120;6.772;2023-07-16T03:02:54;18.40;99.90
5775;DHT22;2913;51.120;6.772;2023-07-16T03:05:20;18.40;99.90
5775;DHT22;2913;51.120;6.772;2023-07-16T03:07:48;18.40;99.90
5775;DHT22;2913;51.120;6.772;2023-07-16T03:10:13;18.40;99.90
5775;DHT22;2913;51.120;6.772;2023-07-16T03:12:39;18.40;99.90
5775;DHT22;2913;51.120;6.772;2023-07-16T03:15:05;18.30;99.90
5775;DHT22;2913;51.120;6.772;2023-07-16T03:17:33;18.30;99.90
5775;DHT22;2913;51.120;6.772;2023-07-16T03:19:59;18.30;99.90
5775;DHT22;2913;51.120;6.772;2023-07-16T03:22:26;18.30;99.90
5775;DHT22;2913;51.120;6.772;2023-07-16T03:24:52;18.30;99.90
5775;DHT22;2913;51.120;6.772;2023-07-16T03:27:17;18.20;99.90
5775;DHT22;2913;51.120;6.772;2023-07-16T03:29:43;18.20;99.90
5775;DHT22;2913;51.120;6.772;2023-07-16T03:32:09;18.20;99.90
5775;DHT22;2913;51.120;6.772;2023-07-16T03:34:39;18.20;99.90
5775;DHT22;2913;51.120;6.772;2023-07-16T03:37:05;18.20;99.90
5775;DHT22;2913;51.120;6.772;2023-07-16T03:39:30;18.20;99.90
5775;DHT22;2913;51.120;6.772;2023-07-16T03:41:56;18.10;99.90
5775;DHT22;2913;51.120;6.772;2023-07-16T03:44:24;18.10;99.90
5775;DHT22;2913;51.120;6.772;2023-07-16T03:46:49;18.20;99.90
5775;DHT22;2913;51.120;6.772;2023-07-16T03:49:15;18.10;99.90
5775;DHT22;2913;51.120;6.772;2023-07-16T03:51:41;18.10;99.90
5775;DHT22;2913;51.120;6.772;2023-07-16T03:54:06;18.10;99.90
5775;DHT22;2913;51.120;6.772;2023-07-16T03:56:34;18.10;99.90
5775;DHT22;2913;51.120;6.772;2023-07-16T04:01:28;18.10;99.90
5775;DHT22;2913;51.120;6.772;2023-07-16T04:03:56;18.10;99.90
5775;DHT22;2913;51.120;6.772;2023-07-16T04:06:21;18.10;99.90
5775;DHT22;2913;51.120;6.772;2023-07-16T04:08:50;18.10;99.90
5775;DHT22;2913;51.120;6.772;2023-07-16T04:11:15;18.20;99.90
5775;DHT22;2913;51.120;6.772;2023-07-16T04:13:43;18.20;99.90
5775;DHT22;2913;51.120;6.772;2023-07-16T04:16:09;18.20;99.90
5775;DHT22;2913;51.120;6.772;2023-07-16T04:18:35;18.40;99.90
5775;DHT22;2913;51.120;6.772;2023-07-16T04:21:00;18.80;99.90
5775;DHT22;2913;51.120;6.772;2023-07-16T04:23:28;19.20;99.90
5775;DHT22;2913;51.120;6.772;2023-07-16T04:25:55;19.60;99.90
5775;DHT22;2913;51.120;6.772;2023-07-16T04:28:21;20.10;99.90
5775;DHT22;2913;51.120;6.772;2023-07-16T04:30:49;20.50;99.90
5775;DHT22;2913;51.120;6.772;2023-07-16T04:33:17;21.00;99.90
5775;DHT22;2913;51.120;6.772;2023-07-16T04:35:44;21.40;99.90
5775;DHT22;2913;51.120;6.772;2023-07-16T04:38:10;21.60;99.90
5775;DHT22;2913;51.120;6.772;2023-07-16T04:40:35;21.90;99.90
5775;DHT22;2913;51.120;6.772;2023-07-16T04:43:03;22.20;99.90
5775;DHT22;2913;51.120;6.772;2023-07-16T04:45:31;22.60;99.90
5775;DHT22;2913;51.120;6.772;2023-07-16T04:47:56;22.80;99.90
5775;DHT22;2913;51.120;6.772;2023-07-16T04:50:22;22.90;99.90
5775;DHT22;2913;51.120;6.772;2023-07-16T04:52:50;23.20;98.10
5775;DHT22;2913;51.120;6.772;2023-07-16T04:55:16;23.60;96.60
5775;DHT22;2913;51.120;6.772;2023-07-16T04:57:41;23.90;95.40
5775;DHT22;2913;51.120;6.772;2023-07-16T05:00:09;24.20;94.20
5775;DHT22;2913;51.120;6.772;2023-07-16T05:02:35;24.30;93.30
5775;DHT22;2913;51.120;6.772;2023-07-16T05:05:03;24.50;92.50
5775;DHT22;2913;51.120;6.772;2023-07-16T05:07:29;24.60;92.10
5775;DHT22;2913;51.120;6.772;2023-07-16T05:10:00;24.70;91.10
5775;DHT22;2913;51.120;6.772;2023-07-16T05:12:25;25.00;90.60
5775;DHT22;2913;51.120;6.772;2023-07-16T05:14:51;25.40;90.10
5775;DHT22;2913;51.120;6.772;2023-07-16T05:17:17;25.50;88.10
5775;DHT22;2913;51.120;6.772;2023-07-16T05:19:42;25.70;87.00
5775;DHT22;2913;51.120;6.772;2023-07-16T05:22:08;26.00;85.70
5775;DHT22;2913;51.120;6.772;2023-07-16T05:24:34;26.30;84.10
5775;DHT22;2913;51.120;6.772;2023-07-16T05:27:01;26.30;83.40
5775;DHT22;2913;51.120;6.772;2023-07-16T05:29:29;26.30;82.20
5775;DHT22;2913;51.120;6.772;2023-07-16T05:31:57;26.40;81.00
5775;DHT22;2913;51.120;6.772;2023-07-16T05:34:23;26.30;80.30
5775;DHT22;2913;51.120;6.772;2023-07-16T05:36:48;26.30;80.20
5775;DHT22;2913;51.120;6.772;2023-07-16T05:39:14;26.10;79.50
5775;DHT22;2913;51.120;6.772;2023-07-16T05:41:40;26.00;80.70
5775;DHT22;2913;51.120;6.772;2023-07-16T05:44:06;25.80;79.60
5775;DHT22;2913;51.120;6.772;2023-07-16T05:46:33;25.20;79.80
5775;DHT22;2913;51.120;6.772;2023-07-16T05:49:01;24.90;80.80
5775;DHT22;2913;51.120;6.772;2023-07-16T05:51:27;25.00;81.60
5775;DHT22;2913;51.120;6.772;2023-07-16T05:53:52;25.00;81.70
5775;DHT22;2913;51.120;6.772;2023-07-16T05:56:18;24.90;81.70
5775;DHT22;2913;51.120;6.772;2023-07-16T05:58:43;25.00;81.60
5775;DHT22;2913;51.120;6.772;2023-07-16T06:01:09;24.90;81.00
5775;DHT22;2913;51.120;6.772;2023-07-16T06:03:35;24.90;80.50
5775;DHT22;2913;51.120;6.772;2023-07-16T06:06:00;24.90;80.70
5775;DHT22;2913;51.120;6.772;2023-07-16T06:08:26;25.00;82.00
5775;DHT22;2913;51.120;6.772;2023-07-16T06:10:51;25.10;80.40
5775;DHT22;2913;51.120;6.772;2023-07-16T06:13:21;25.00;80.40
5775;DHT22;2913;51.120;6.772;2023-07-16T06:15:50;25.20;80.20
5775;DHT22;2913;51.120;6.772;2023-07-16T06:18:15;25.10;80.40
5775;DHT22;2913;51.120;6.772;2023-07-16T06:20:47;25.20;80.70
5775;DHT22;2913;51.120;6.772;2023-07-16T06:23:13;25.00;79.80
5775;DHT22;2913;51.120;6.772;2023-07-16T06:25:38;24.40;79.20
5775;DHT22;2913;51.120;6.772;2023-07-16T06:28:14;24.50;80.70
5775;DHT22;2913;51.120;6.772;2023-07-16T06:30:43;24.50;81.10
5775;DHT22;2913;51.120;6.772;2023-07-16T06:33:09;24.30;81.10
5775;DHT22;2913;51.120;6.772;2023-07-16T06:35:37;24.20;80.30
5775;DHT22;2913;51.120;6.772;2023-07-16T06:38:05;24.50;80.30
5775;DHT22;2913;51.120;6.772;2023-07-16T06:40:31;24.60;80.10
5775;DHT22;2913;51.120;6.772;2023-07-16T06:42:56;24.70;80.30
5775;DHT22;2913;51.120;6.772;2023-07-16T06:47:48;24.20;78.10
5775;DHT22;2913;51.120;6.772;2023-07-16T06:50:14;24.40;80.70
5775;DHT22;2913;51.120;6.772;2023-07-16T06:52:40;24.30;78.80
5775;DHT22;2913;51.120;6.772;2023-07-16T06:55:05;24.40;79.20
5775;DHT22;2913;51.120;6.772;2023-07-16T06:57:34;24.70;79.70
5775;DHT22;2913;51.120;6.772;2023-07-16T06:59:59;24.70;79.60
5775;DHT22;2913;51.120;6.772;2023-07-16T07:02:25;24.70;79.80
5775;DHT22;2913;51.120;6.772;2023-07-16T07:04:51;24.70;78.70
5775;DHT22;2913;51.120;6.772;2023-07-16T07:07:17;24.70;78.50
5775;DHT22;2913;51.120;6.772;2023-07-16T07:09:42;24.50;77.60
5775;DHT22;2913;51.120;6.772;2023-07-16T07:12:10;24.40;78.40
5775;DHT22;2913;51.120;6.772;2023-07-16T07:14:36;24.70;78.60
5775;DHT22;2913;51.120;6.772;2023-07-16T07:17:02;24.60;78.00
5775;DHT22;2913;51.120;6.772;2023-07-16T07:19:27;24.50;78.30
5775;DHT22;2913;51.120;6.772;2023-07-16T07:21:53;24.50;78.10
5775;DHT22;2913;51.120;6.772;2023-07-16T07:24:19;24.30;76.90
5775;DHT22;2913;51.120;6.772;2023-07-16T07:26:44;24.40;78.10
5775;DHT22;2913;51.120;6.772;2023-07-16T07:29:10;24.10;77.70
5775;DHT22;2913;51.120;6.772;2023-07-16T07:31:35;24.20;78.00
5775;DHT22;2913;51.120;6.772;2023-07-16T07:34:06;24.40;78.10
5775;DHT22;2913;51.120;6.772;2023-07-16T07:36:31;24.50;77.50
5775;DHT22;2913;51.120;6.772;2023-07-16T07:38:59;24.40;77.20
5775;DHT22;2913;51.120;6.772;2023-07-16T07:41:29;24.50;77.00
5775;DHT22;2913;51.120;6.772;2023-07-16T07:43:55;24.60;77.30
5775;DHT22;2913;51.120;6.772;2023-07-16T07:46:23;24.40;76.80
5775;DHT22;2913;51.120;6.772;2023-07-16T07:48:48;24.50;77.50
5775;DHT22;2913;51.120;6.772;2023-07-16T07:51:14;24.70;77.50
5775;DHT22;2913;51.120;6.772;2023-07-16T07:53:40;24.70;76.60
5775;DHT22;2913;51.120;6.772;2023-07-16T07:56:05;24.40;77.00
5775;DHT22;2913;51.120;6.772;2023-07-16T07:58:31;24.10;77.30
5775;DHT22;2913;51.120;6.772;2023-07-16T08:00:56;24.10;77.60
5775;DHT22;2913;51.120;6.772;2023-07-16T08:03:22;24.40;78.50
5775;DHT22;2913;51.120;6.772;2023-07-16T08:05:50;24.50;76.90
5775;DHT22;2913;51.120;6.772;2023-07-16T08:08:16;24.60;77.10
5775;DHT22;2913;51.120;6.772;2023-07-16T08:10:42;24.60;76.50
5775;DHT22;2913;51.120;6.772;2023-07-16T08:13:08;24.70;76.30
5775;DHT22;2913;51.120;6.772;2023-07-16T08:15:34;24.50;74.50
5775;DHT22;2913;51.120;6.772;2023-07-16T08:17:59;24.50;75.00
5775;DHT22;2913;51.120;6.772;2023-07-16T08:20:27;24.50;75.20
5775;DHT22;2913;51.120;6.772;2023-07-16T08:22:53;24.40;75.60
5775;DHT22;2913;51.120;6.772;2023-07-16T08:25:19;24.30;75.60
5775;DHT22;2913;51.120;6.772;2023-07-16T08:27:44;24.30;75.70
5775;DHT22;2913;51.120;6.772;2023-07-16T08:30:13;24.50;76.40
5775;DHT22;2913;51.120;6.772;2023-07-16T08:32:39;24.50;75.20
5775;DHT22;2913;51.120;6.772;2023-07-16T08:35:05;24.50;75.90
5775;DHT22;2913;51.120;6.772;2023-07-16T08:37:30;24.50;74.60
5775;DHT22;2913;51.120;6.772;2023-07-16T08:39:56;24.80;75.30
5775;DHT22;2913;51.120;6.772;2023-07-16T08:42:22;24.90;74.70
5775;DHT22;2913;51.120;6.772;2023-07-16T08:44:50;24.70;73.90
5775;DHT22;2913;51.120;6.772;2023-07-16T08:47:17;25.10;74.80
5775;DHT22;2913;51.120;6.772;2023-07-16T08:49:55;25.20;73.30
5775;DHT22;2913;51.120;6.772;2023-07-16T08:52:24;25.20;72.70
5775;DHT22;2913;51.120;6.772;2023-07-16T08:54:50;25.30;72.00
5775;DHT22;2913;51.120;6.772;2023-07-16T08:57:16;25.10;70.70
5775;DHT22;2913;51.120;6.772;2023-07-16T08:59:43;25.10;72.60
5775;DHT22;2913;51.120;6.772;2023-07-16T09:02:14;25.20;72.40
5775;DHT22;2913;51.120;6.772;2023-07-16T09:04:40;25.40;72.00
5775;DHT22;2913;51.120;6.772;2023-07-16T09:07:08;25.30;72.00
5775;DHT22;2913;51.120;6.772;2023-07-16T09:09:36;25.20;71.80
5775;DHT22;2913;51.120;6.772;2023-07-16T09:12:02;25.20;71.90
5775;DHT22;2913;51.120;6.772;2023-07-16T09:14:28;25.20;72.10
5775;DHT22;2913;51.120;6.772;2023-07-16T09:16:58;25.20;71.50
5775;DHT22;2913;51.120;6.772;2023-07-16T09:19:26;25.30;71.50
5775;DHT22;2913;51.120;6.772;2023-07-16T09:21:53;25.50;71.90
5775;DHT22;2913;51.120;6.772;2023-07-16T09:24:22;25.30;71.40
5775;DHT22;2913;51.120;6.772;2023-07-16T09:26:54;25.00;71.50
5775;DHT22;2913;51.120;6.772;2023-07-16T09:29:25;25.10;71.30
5775;DHT22;2913;51.120;6.772;2023-07-16T09:31:58;24.80;71.50
5775;DHT22;2913;51.120;6.772;2023-07-16T09:34:28;24.80;71.90
5775;DHT22;2913;51.120;6.772;2023-07-16T09:36:58;24.90;71.80
5775;DHT22;2913;51.120;6.772;2023-07-16T09:39:25;25.20;72.20
5775;DHT22;2913;51.120;6.772;2023-07-16T09:41:53;25.10;71.40
5775;DHT22;2913;51.120;6.772;2023-07-16T09:44:21;25.20;71.30
5775;DHT22;2913;51.120;6.772;2023-07-16T09:46:49;25.40;71.30
5775;DHT22;2913;51.120;6.772;2023-07-16T09:49:15;25.20;70.80
5775;DHT22;2913;51.120;6.772;2023-07-16T09:51:45;25.20;71.20
5775;DHT22;2913;51.120;6.772;2023-07-16T09:54:15;25.20;72.00
5775;DHT22;2913;51.120;6.772;2023-07-16T09:56:47;25.10;72.00
5775;DHT22;2913;51.120;6.772;2023-07-16T09:59:17;25.10;72.40
5775;DHT22;2913;51.120;6.772;2023-07-16T10:01:45;25.40;74.10
5775;DHT22;2913;51.120;6.772;2023-07-16T10:04:17;25.20;73.10
5775;DHT22;2913;51.120;6.772;2023-07-16T10:09:35;25.30;72.80
5775;DHT22;2913;51.120;6.772;2023-07-16T10:12:16;25.20;72.30
5775;DHT22;2913;51.120;6.772;2023-07-16T10:14:49;25.20;72.00
5775;DHT22;2913;51.120;6.772;2023-07-16T10:17:20;25.60;72.10
5775;DHT22;2913;51.120;6.772;2023-07-16T10:20:00;25.80;71.90
5775;DHT22;2913;51.120;6.772;2023-07-16T10:22:35;25.70;70.80
5775;DHT22;2913;51.120;6.772;2023-07-16T10:25:02;25.60;70.80
5775;DHT22;2913;51.120;6.772;2023-07-16T10:27:35;25.50;70.40
5775;DHT22;2913;51.120;6.772;2023-07-16T10:30:04;25.20;70.30
5775;DHT22;2913;51.120;6.772;2023-07-16T10:32:32;25.00;70.50
5775;DHT22;2913;51.120;6.772;2023-07-16T10:35:01;25.30;71.50
5775;DHT22;2913;51.120;6.772;2023-07-16T10:37:27;25.40;70.70
5775;DHT22;2913;51.120;6.772;2023-07-16T10:39:57;25.50;71.10
5775;DHT22;2913;51.120;6.772;2023-07-16T10:42:26;25.50;70.40
5775;DHT22;2913;51.120;6.772;2023-07-16T10:44:57;25.50;69.70
5775;DHT22;2913;51.120;6.772;2023-07-16T10:47:24;25.50;69.50
5775;DHT22;2913;51.120;6.772;2023-07-16T10:49:53;25.60;69.50
5775;DHT22;2913;51.120;6.772;2023-07-16T10:52:20;25.80;69.90
5775;DHT22;2913;51.120;6.772;2023-07-16T10:54:46;25.90;69.10
5775;DHT22;2913;51.120;6.772;2023-07-16T10:57:15;25.90;69.10
5775;DHT22;2913;51.120;6.772;2023-07-16T10:59:42;26.00;68.70
5775;DHT22;2913;51.120;6.772;2023-07-16T11:02:11;26.00;69.10
5775;DHT22;2913;51.120;6.772;2023-07-16T11:04:37;25.80;67.80
5775;DHT22;2913;51.120;6.772;2023-07-16T11:07:07;25.80;67.90
5775;DHT22;2913;51.120;6.772;2023-07-16T11:09:39;26.10;69.00
5775;DHT22;2913;51.120;6.772;2023-07-16T11:12:09;26.20;68.10
5775;DHT22;2913;51.120;6.772;2023-07-16T11:14:42;26.20;67.20
5775;DHT22;2913;51.120;6.772;2023-07-16T11:17:08;26.20;67.90
5775;DHT22;2913;51.120;6.772;2023-07-16T11:19:36;26.00;66.70
5775;DHT22;2913;51.120;6.772;2023-07-16T11:22:07;26.00;66.90
5775;DHT22;2913;51.120;6.772;2023-07-16T11:24:44;26.10;67.30
5775;DHT22;2913;51.120;6.772;2023-07-16T11:27:19;26.60;68.10
5775;DHT22;2913;51.120;6.772;2023-07-16T11:29:55;26.30;66.20
5775;DHT22;2913;51.120;6.772;2023-07-16T11:32:34;26.10;66.50
5775;DHT22;2913;51.120;6.772;2023-07-16T11:35:03;25.80;65.90
5775;DHT22;2913;51.120;6.772;2023-07-16T11:37:32;26.00;67.70
5775;DHT22;2913;51.120;6.772;2023-07-16T11:42:32;25.90;67.50
5775;DHT22;2913;51.120;6.772;2023-07-16T11:45:02;25.90;68.30
5775;DHT22;2913;51.120;6.772;2023-07-16T11:47:28;26.00;68.30
5775;DHT22;2913;51.120;6.772;2023-07-16T11:49:55;25.90;67.20
5775;DHT22;2913;51.120;6.772;2023-07-16T11:52:32;25.80;67.90
5775;DHT22;2913;51.120;6.772;2023-07-16T11:55:03;25.90;68.10
5775;DHT22;2913;51.120;6.772;2023-07-16T11:57:34;25.90;67.80
5775;DHT22;2913;51.120;6.772;2023-07-16T12:00:00;25.90;66.50
5775;DHT22;2913;51.120;6.772;2023-07-16T12:02:28;25.80;66.30
5775;DHT22;2913;51.120;6.772;2023-07-16T12:04:55;26.20;67.30
5775;DHT22;2913;51.120;6.772;2023-07-16T12:07:35;26.20;67.00
5775;DHT22;2913;51.120;6.772;2023-07-16T12:10:10;26.20;66.40
5775;DHT22;2913;51.120;6.772;2023-07-16T12:12:38;26.40;66.80
5775;DHT22;2913;51.120;6.772;2023-07-16T12:15:05;26.20;65.10
5775;DHT22;2913;51.120;6.772;2023-07-16T12:19:57;26.30;65.80
5775;DHT22;2913;51.120;6.772;2023-07-16T12:22:24;26.30;66.30
5775;DHT22;2913;51.120;6.772;2023-07-16T12:24:49;26.60;66.20
5775;DHT22;2913;51.120;6.772;2023-07-16T12:27:15;26.60;66.00
5775;DHT22;2913;51.120;6.772;2023-07-16T12:29:44;26.30;66.00
5775;DHT22;2913;51.120;6.772;2023-07-16T12:32:10;26.40;66.20
5775;DHT22;2913;51.120;6.772;2023-07-16T12:34:35;26.80;64.60
5775;DHT22;2913;51.120;6.772;2023-07-16T12:37:01;26.80;65.20
5775;DHT22;2913;51.120;6.772;2023-07-16T12:39:29;26.70;63.90
5775;DHT22;2913;51.120;6.772;2023-07-16T12:41:57;26.70;64.30
5775;DHT22;2913;51.120;6.772;2023-07-16T12:44:25;26.50;64.10
5775;DHT22;2913;51.120;6.772;2023-07-16T12:47:04;26.60;62.90
5775;DHT22;2913;51.120;6.772;2023-07-16T12:49:47;26.70;64.00
5775;DHT22;2913;51.120;6.772;2023-07-16T12:52:36;26.40;63.50
5775;DHT22;2913;51.120;6.772;2023-07-16T12:55:04;26.30;64.20
5775;DHT22;2913;51.120;6.772;2023-07-16T12:57:29;26.10;64.60
5775;DHT22;2913;51.120;6.772;2023-07-16T13:00:01;26.20;63.40
5775;DHT22;2913;51.120;6.772;2023-07-16T13:02:30;26.50;64.40
5775;DHT22;2913;51.120;6.772;2023-07-16T13:04:56;26.50;65.30
5775;DHT22;2913;51.120;6.772;2023-07-16T13:07:21;26.60;64.40
5775;DHT22;2913;51.120;6.772;2023-07-16T13:09:47;26.80;62.50
5775;DHT22;2913;51.120;6.772;2023-07-16T13:12:12;26.70;62.40
5775;DHT22;2913;51.120;6.772;2023-07-16T13:14:38;26.70;62.80
5775;DHT22;2913;51.120;6.772;2023-07-16T13:17:06;26.50;62.80
5775;DHT22;2913;51.120;6.772;2023-07-16T13:19:31;26.50;63.10
5775;DHT22;2913;51.120;6.772;2023-07-16T13:21:57;26.30;62.80
5775;DHT22;2913;51.120;6.772;2023-07-16T13:24:23;26.50;63.80
5775;DHT22;2913;51.120;6.772;2023-07-16T13:26:53;26.50;62.90
5775;DHT22;2913;51.120;6.772;2023-07-16T13:29:23;26.50;63.60
5775;DHT22;2913;51.120;6.772;2023-07-16T13:31:48;26.40;63.00
5775;DHT22;2913;51.120;6.772;2023-07-16T13:34:14;26.40;63.00
5775;DHT22;2913;51.120;6.772;2023-07-16T13:36:39;26.60;63.10
5775;DHT22;2913;51.120;6.772;2023-07-16T13:39:10;26.60;63.40
5775;DHT22;2913;51.120;6.772;2023-07-16T13:41:38;26.50;63.60
5775;DHT22;2913;51.120;6.772;2023-07-16T13:44:06;26.60;63.90
5775;DHT22;2913;51.120;6.772;2023-07-16T13:46:32;26.50;64.70
5775;DHT22;2913;51.120;6.772;2023-07-16T13:48:58;26.50;65.90
5775;DHT22;2913;51.120;6.772;2023-07-16T13:51:27;26.40;64.90
5775;DHT22;2913;51.120;6.772;2023-07-16T13:53:57;26.50;64.70
5775;DHT22;2913;51.120;6.772;2023-07-16T13:56:23;26.40;64.90
5775;DHT22;2913;51.120;6.772;2023-07-16T13:58:48;26.40;65.50
5775;DHT22;2913;51.120;6.772;2023-07-16T14:01:19;26.50;65.80
5775;DHT22;2913;51.120;6.772;2023-07-16T14:03:47;26.50;65.80
5775;DHT22;2913;51.120;6.772;2023-07-16T14:06:13;26.50;64.80
5775;DHT22;2913;51.120;6.772;2023-07-16T14:08:38;26.50;65.90
5775;DHT22;2913;51.120;6.772;2023-07-16T14:11:07;26.70;65.50
5775;DHT22;2913;51.120;6.772;2023-07-16T14:13:33;26.80;65.50
5775;DHT22;2913;51.120;6.772;2023-07-16T14:16:01;26.90;65.40
5775;DHT22;2913;51.120;6.772;2023-07-16T14:18:30;26.80;64.80
5775;DHT22;2913;51.120;6.772;2023-07-16T14:20:56;26.80;65.20
5775;DHT22;2913;51.120;6.772;2023-07-16T14:23:25;26.60;65.30
5775;DHT22;2913;51.120;6.772;2023-07-16T14:25:53;26.70;66.20
5775;DHT22;2913;51.120;6.772;2023-07-16T14:28:21;26.40;65.50
5775;DHT22;2913;51.120;6.772;2023-07-16T14:30:49;26.40;65.50
5775;DHT22;2913;51.120;6.772;2023-07-16T14:33:14;26.40;65.50
5775;DHT22;2913;51.120;6.772;2023-07-16T14:35:40;26.40;65.60
5775;DHT22;2913;51.120;6.772;2023-07-16T14:38:05;26.40;66.30
5775;DHT22;2913;51.120;6.772;2023-07-16T14:40:31;26.40;67.30
5775;DHT22;2913;51.120;6.772;2023-07-16T14:42:57;26.20;66.00
5775;DHT22;2913;51.120;6.772;2023-07-16T14:45:29;26.10;66.40
5775;DHT22;2913;51.120;6.772;2023-07-16T14:47:57;26.20;67.30
5775;DHT22;2913;51.120;6.772;2023-07-16T14:50:23;26.40;66.70
5775;DHT22;2913;51.120;6.772;2023-07-16T14:52:49;26.50;66.90
5775;DHT22;2913;51.120;6.772;2023-07-16T14:55:14;26.40;67.00
5775;DHT22;2913;51.120;6.772;2023-07-16T14:57:40;26.40;66.60
5775;DHT22;2913;51.120;6.772;2023-07-16T15:00:09;26.40;66.40
5775;DHT22;2913;51.120;6.772;2023-07-16T15:02:39;26.20;65.90
5775;DHT22;2913;51.120;6.772;2023-07-16T15:05:05;26.30;65.90
5775;DHT22;2913;51.120;6.772;2023-07-16T15:07:30;26.10;66.50
5775;DHT22;2913;51.120;6.772;2023-07-16T15:09:56;26.20;66.50
5775;DHT22;2913;51.120;6.772;2023-07-16T15:12:27;26.20;66.70
5775;DHT22;2913;51.120;6.772;2023-07-16T15:14:53;26.30;65.30
5775;DHT22;2913;51.120;6.772;2023-07-16T15:17:18;26.30;66.10
5775;DHT22;2913;51.120;6.772;2023-07-16T15:19:44;26.30;65.60
5775;DHT22;2913;51.120;6.772;2023-07-16T15:22:10;26.20;66.40
5775;DHT22;2913;51.120;6.772;2023-07-16T15:24:36;26.40;65.60
5775;DHT22;2913;51.120;6.772;2023-07-16T15:27:02;26.60;65.80
5775;DHT22;2913;51.120;6.772;2023-07-16T15:29:29;26.40;66.10
5775;DHT22;2913;51.120;6.772;2023-07-16T15:31:55;26.60;66.50
5775;DHT22;2913;51.120;6.772;2023-07-16T15:34:21;26.60;66.60
5775;DHT22;2913;51.120;6.772;2023-07-16T15:39:15;26.60;65.50
5775;DHT22;2913;51.120;6.772;2023-07-16T15:41:40;26.80;66.40
5775;DHT22;2913;51.120;6.772;2023-07-16T15:44:06;26.80;66.30
5775;DHT22;2913;51.120;6.772;2023-07-16T15:46:31;26.70;65.20
5775;DHT22;2913;51.120;6.772;2023-07-16T15:48:57;26.80;64.90
5775;DHT22;2913;51.120;6.772;2023-07-16T15:51:23;26.80;63.80
5775;DHT22;2913;51.120;6.772;2023-07-16T15:53:53;26.70;64.10
5775;DHT22;2913;51.120;6.772;2023-07-16T15:56:20;26.70;64.00
5775;DHT22;2913;51.120;6.772;2023-07-16T15:58:46;26.60;65.10
5775;DHT22;2913;51.120;6.772;2023-07-16T16:01:11;26.70;66.00
5775;DHT22;2913;51.120;6.772;2023-07-16T16:03:42;26.90;66.40
5775;DHT22;2913;51.120;6.772;2023-07-16T16:06:09;27.00;65.10
5775;DHT22;2913;51.120;6.772;2023-07-16T16:08:37;27.10;65.80
5775;DHT22;2913;51.120;6.772;2023-07-16T16:13:29;27.10;64.30
5775;DHT22;2913;51.120;6.772;2023-07-16T16:15:58;27.20;64.20
5775;DHT22;2913;51.120;6.772;2023-07-16T16:18:24;27.20;64.10
5775;DHT22;2913;51.120;6.772;2023-07-16T16:20:52;27.30;64.60
5775;DHT22;2913;51.120;6.772;2023-07-16T16:23:20;27.30;64.20
5775;DHT22;2913;51.120;6.772;2023-07-16T16:25:46;27.10;64.00